Dawson, Georgia
Current Conditions -  °F | °C
As of 12:53 AM on Saturday 20 Dec 2014 (Local Time) from KABY Reporting Station
Light Rain Light Rain  
Wind Chill: 51°   Ceiling: 7000
Heat Index: 51°   Visibility: 9mi
Dew Point: 44°   Wind: 0mph
Humidity: 77%   Direction: NA
Pressure: 30.17"   Gusts: NA
Location:  31.77°N, 84.45°W
Report Text: KABY 200553Z 00000KT 9SM -RA SCT043 SCT055 OVC070 11/07 A3017 RMK AO2 RAB51 SLP215 P0000 60000 T01060067 10122 20106 51011
Loading
Personal Weather Stations






























Interactive Weather Map New forecast layout! Learn more

10-Day Weather Forecast

Advertisements
Track Severe Weather on mobile